createdAt,value
2018-12-17T00:00:50.237Z,98002.16
2018-12-17T00:04:56.396Z,97994.80
2018-12-17T00:09:02.581Z,97996.94
2018-12-17T00:13:07.748Z,98006.27
2018-12-17T00:17:11.853Z,98011.43
2018-12-17T00:21:15.939Z,98010.39
2018-12-17T00:25:20.047Z,98009.22
2018-12-17T00:29:24.131Z,98019.02
2018-12-17T00:33:28.295Z,98021.13
2018-12-17T00:37:32.457Z,98017.25
2018-12-17T00:41:36.599Z,98018.92
2018-12-17T00:45:40.682Z,98024.89
2018-12-17T00:49:44.843Z,98021.36
2018-12-17T00:53:49.016Z,98022.94
2018-12-17T00:57:53.134Z,98027.22
2018-12-17T01:01:58.417Z,98025.53
2018-12-17T01:06:02.497Z,98027.11
2018-12-17T01:10:07.924Z,98028.47
2018-12-17T01:14:11.988Z,98024.85
2018-12-17T01:18:16.082Z,98034.92
2018-12-17T01:22:20.188Z,98040.76
2018-12-17T01:26:24.547Z,98055.83
2018-12-17T01:30:28.714Z,98059.67
2018-12-17T01:34:32.830Z,98060.62
2018-12-17T01:38:36.962Z,98063.16
2018-12-17T01:42:41.053Z,98066.23
2018-12-17T01:46:45.164Z,98078.38
2018-12-17T01:50:49.257Z,98083.36
2018-12-17T01:54:53.346Z,98086.44
2018-12-17T01:58:57.461Z,98093.02
2018-12-17T02:03:01.558Z,98098.02
2018-12-17T02:07:05.691Z,98094.73
2018-12-17T02:11:09.773Z,98094.75
2018-12-17T02:15:13.936Z,98102.43
2018-12-17T02:19:18.028Z,98111.09
2018-12-17T02:23:22.098Z,98113.24
2018-12-17T02:27:26.224Z,98116.69
2018-12-17T02:31:30.306Z,98107.40
2018-12-17T02:35:34.397Z,98111.64
2018-12-17T02:39:38.485Z,98113.55
2018-12-17T02:43:42.585Z,98112.02
2018-12-17T02:47:46.667Z,98117.37
2018-12-17T02:51:50.725Z,98123.91
2018-12-17T02:55:54.813Z,98121.96
2018-12-17T02:59:58.891Z,98123.31
2018-12-17T03:04:02.982Z,98126.63
2018-12-17T03:08:07.060Z,98131.63
2018-12-17T03:12:11.177Z,98129.28
2018-12-17T03:16:15.254Z,98140.38
2018-12-17T03:20:19.505Z,98142.35
2018-12-17T03:24:24.305Z,98141.61
2018-12-17T03:28:28.388Z,98143.35
2018-12-17T03:32:32.451Z,98152.88
2018-12-17T03:36:36.705Z,98153.31
2018-12-17T03:40:40.798Z,98154.83
2018-12-17T03:44:44.940Z,98152.14
2018-12-17T03:48:49.074Z,98158.10
2018-12-17T03:52:53.195Z,98164.69
2018-12-17T03:56:57.265Z,98165.80
2018-12-17T04:01:01.441Z,98172.12
2018-12-17T04:05:06.761Z,98167.09
2018-12-17T04:09:10.859Z,98178.09
2018-12-17T04:13:14.990Z,98175.14
2018-12-17T04:17:19.166Z,98190.29
2018-12-17T04:21:24.981Z,98190.52
2018-12-17T04:25:29.088Z,98191.08
2018-12-17T04:29:33.165Z,98199.70
2018-12-17T04:33:37.294Z,98206.44
2018-12-17T04:37:41.517Z,98201.09
2018-12-17T04:41:45.579Z,98209.39
2018-12-17T04:45:49.757Z,98211.52
2018-12-17T04:49:53.851Z,98214.58
2018-12-17T04:53:57.938Z,98228.25
2018-12-17T04:58:02.196Z,98226.55
2018-12-17T05:02:06.371Z,98234.25
2018-12-17T05:06:10.520Z,98243.30
2018-12-17T05:10:14.702Z,98255.78
2018-12-17T05:14:18.840Z,98259.24
2018-12-17T05:18:22.950Z,98270.86
2018-12-17T05:22:27.036Z,98282.53
2018-12-17T05:26:31.113Z,98282.81
2018-12-17T05:35:02.330Z,98292.48
2018-12-17T05:39:06.997Z,98287.84
2018-12-17T05:43:11.086Z,98292.45
2018-12-17T05:47:15.188Z,98305.34
2018-12-17T05:51:19.275Z,98311.55
2018-12-17T05:55:23.398Z,98320.98
2018-12-17T05:59:28.668Z,98320.19
2018-12-17T06:03:32.856Z,98318.48
2018-12-17T06:07:36.995Z,98331.99
2018-12-17T06:11:41.128Z,98329.50
2018-12-17T06:15:45.293Z,98333.36
2018-12-17T06:19:49.409Z,98347.63
2018-12-17T06:23:53.461Z,98349.72
2018-12-17T06:27:57.561Z,98359.12
2018-12-17T06:32:01.648Z,98373.02
2018-12-17T06:36:05.796Z,98374.72
2018-12-17T06:40:10.434Z,98378.00
2018-12-17T06:44:14.819Z,98382.69
2018-12-17T06:48:18.918Z,98380.58
2018-12-17T06:52:23.002Z,98370.39
2018-12-17T06:56:27.180Z,98376.93
2018-12-17T07:00:31.233Z,98398.13
2018-12-17T07:04:35.318Z,98406.05
2018-12-17T07:08:39.616Z,98421.69
2018-12-17T07:12:43.686Z,98426.06
2018-12-17T07:16:48.632Z,98428.57
2018-12-17T07:20:52.738Z,98424.58
2018-12-17T07:24:56.860Z,98432.13
2018-12-17T07:29:00.933Z,98441.13
2018-12-17T07:33:05.630Z,98440.88
2018-12-17T07:37:11.267Z,98452.44
2018-12-17T07:41:15.357Z,98460.38
2018-12-17T07:45:19.424Z,98466.77
2018-12-17T07:49:23.521Z,98468.13
2018-12-17T07:53:27.622Z,98472.59
2018-12-17T07:57:31.714Z,98483.95
2018-12-17T08:01:35.901Z,98490.22
2018-12-17T08:05:40.006Z,98498.09
2018-12-17T08:09:44.262Z,98501.63
2018-12-17T08:13:48.418Z,98508.80
2018-12-17T08:22:37.821Z,98523.22
2018-12-17T08:26:42.402Z,98532.73
2018-12-17T08:30:47.365Z,98527.52
2018-12-17T08:34:51.439Z,98541.33
2018-12-17T08:38:55.520Z,98537.55
2018-12-17T08:42:59.657Z,98552.23
2018-12-17T08:47:03.854Z,98560.19
2018-12-17T08:51:08.476Z,98561.13
2018-12-17T08:55:12.788Z,98557.08
2018-12-17T08:59:16.876Z,98572.72
2018-12-17T09:03:20.933Z,98571.55
2018-12-17T09:07:25.086Z,98573.12
2018-12-17T09:11:29.213Z,98570.20
2018-12-17T09:15:33.273Z,98573.70
2018-12-17T09:19:37.357Z,98573.89
2018-12-17T09:23:41.442Z,98580.20
2018-12-17T09:27:45.639Z,98593.94
2018-12-17T09:31:49.724Z,98594.99
2018-12-17T09:35:53.913Z,98600.46
2018-12-17T09:39:57.993Z,98606.69
2018-12-17T09:44:03.773Z,98607.52
2018-12-17T09:48:08.104Z,98602.12
2018-12-17T09:52:12.249Z,98605.03
2018-12-17T09:56:16.334Z,98599.41
2018-12-17T10:00:25.414Z,98606.56
2018-12-17T10:04:26.461Z,98596.86
2018-12-17T10:08:30.559Z,98608.00
2018-12-17T10:12:34.719Z,98607.59
2018-12-17T10:16:38.850Z,98608.69
2018-12-17T10:20:42.971Z,98609.23
2018-12-17T10:24:47.081Z,98608.47
2018-12-17T10:28:51.221Z,98606.42
2018-12-17T10:32:55.328Z,98596.20
2018-12-17T10:36:59.456Z,98592.34
2018-12-17T10:41:03.596Z,98578.06
2018-12-17T10:45:08.631Z,98587.54
2018-12-17T10:49:12.712Z,98582.54
2018-12-17T10:53:16.793Z,98594.56
2018-12-17T10:57:21.976Z,98600.05
2018-12-17T11:01:32.500Z,98587.59
2018-12-17T11:09:58.557Z,98583.67
2018-12-17T11:14:02.760Z,98581.34
2018-12-17T11:18:06.901Z,98584.48
2018-12-17T11:22:11.066Z,98587.27
2018-12-17T11:26:15.186Z,98592.64
2018-12-17T11:30:19.344Z,98589.45
2018-12-17T11:34:23.437Z,98589.76
2018-12-17T11:38:27.542Z,98587.11
2018-12-17T11:42:31.646Z,98583.64
2018-12-17T11:46:35.837Z,98585.03
2018-12-17T11:50:39.904Z,98591.84
2018-12-17T11:54:44.030Z,98583.95
2018-12-17T11:58:48.179Z,98590.04
2018-12-17T12:02:59.071Z,98587.79
2018-12-17T12:07:00.389Z,98593.95
2018-12-17T12:11:04.589Z,98597.73
2018-12-17T12:15:08.750Z,98605.05
2018-12-17T12:19:12.843Z,98602.60
2018-12-17T12:23:17.021Z,98609.23
2018-12-17T12:27:21.213Z,98610.33
2018-12-17T12:31:25.312Z,98615.11
2018-12-17T12:35:29.438Z,98613.66
2018-12-17T12:39:33.653Z,98621.72
2018-12-17T12:43:37.712Z,98621.39
2018-12-17T12:47:41.849Z,98625.87
2018-12-17T12:51:45.962Z,98627.45
2018-12-17T12:55:50.070Z,98638.78
2018-12-17T12:59:54.161Z,98638.30
2018-12-17T13:03:58.308Z,98653.78
2018-12-17T13:08:02.408Z,98655.05
2018-12-17T13:12:06.548Z,98657.58
2018-12-17T13:16:10.728Z,98671.01
2018-12-17T13:20:14.908Z,98672.39
2018-12-17T13:24:19.109Z,98679.61
2018-12-17T13:28:23.210Z,98690.50
2018-12-17T13:32:27.266Z,98685.88
2018-12-17T13:36:31.472Z,98688.22
2018-12-17T13:40:35.558Z,98688.42
2018-12-17T13:44:39.648Z,98696.70
2018-12-17T13:48:44.413Z,98708.34
2018-12-17T13:52:48.473Z,98716.12
2018-12-17T13:56:52.580Z,98727.17
2018-12-17T14:00:56.647Z,98725.77
2018-12-17T14:05:01.713Z,98735.02
2018-12-17T14:09:06.794Z,98728.89
2018-12-17T14:13:12.853Z,98738.38
2018-12-17T14:17:22.325Z,98755.58
2018-12-17T14:21:31.997Z,98770.28
2018-12-17T14:25:36.207Z,98776.53
2018-12-17T14:29:40.264Z,98785.98
2018-12-17T14:33:44.365Z,98802.43
2018-12-17T14:38:06.217Z,98806.48
2018-12-17T14:42:10.374Z,98822.98
2018-12-17T14:46:14.460Z,98825.45
2018-12-17T14:50:18.648Z,98836.88
2018-12-17T14:54:22.711Z,98828.17
2018-12-17T14:58:26.801Z,98840.17
2018-12-17T15:02:30.914Z,98852.00
2018-12-17T15:06:35.109Z,98860.12
2018-12-17T15:10:39.209Z,98872.71
2018-12-17T15:14:43.333Z,98875.06
2018-12-17T15:18:47.505Z,98893.27
2018-12-17T15:22:51.650Z,98896.35
2018-12-17T15:26:55.742Z,98904.31
2018-12-17T15:30:59.855Z,98905.45
2018-12-17T15:35:05.765Z,98905.45
2018-12-17T15:39:09.857Z,98915.53
2018-12-17T15:43:13.986Z,98922.53
2018-12-17T15:47:18.077Z,98920.20
2018-12-17T15:51:22.184Z,98923.48
2018-12-17T15:55:26.246Z,98937.62
2018-12-17T15:59:30.408Z,98934.73
2018-12-17T16:03:34.462Z,98934.91
2018-12-17T16:07:48.309Z,98933.56
2018-12-17T16:11:52.401Z,98924.84
2018-12-17T16:15:56.509Z,98933.92
2018-12-17T16:20:00.613Z,98928.66
2018-12-17T16:24:04.818Z,98924.50
2018-12-17T16:28:08.913Z,98936.94
2018-12-17T16:32:13.008Z,98940.24
2018-12-17T16:36:17.136Z,98941.56
2018-12-17T16:40:26.791Z,98938.82
2018-12-17T16:44:48.629Z,98945.98
2018-12-17T16:48:52.699Z,98953.47
2018-12-17T16:52:56.797Z,98964.73
2018-12-17T17:01:48.626Z,98977.91
2018-12-17T17:10:48.477Z,98977.72
2018-12-17T17:19:50.998Z,98991.28
2018-12-17T17:28:48.455Z,99004.48
2018-12-17T17:46:48.566Z,99028.95
2018-12-17T17:50:52.674Z,99026.27
2018-12-17T17:54:56.745Z,99034.20
2018-12-17T17:59:00.825Z,99033.64
2018-12-17T18:07:48.709Z,99039.55
2018-12-17T18:11:52.829Z,99041.28
2018-12-17T18:15:57.570Z,99059.03
2018-12-17T18:20:02.684Z,99059.38
2018-12-17T18:28:49.512Z,99083.08
2018-12-17T18:32:53.610Z,99086.25
2018-12-17T18:36:57.697Z,99095.91
2018-12-17T18:41:01.859Z,99101.67
2018-12-17T18:49:48.746Z,99101.28
2018-12-17T18:53:53.698Z,99107.33
2018-12-17T18:57:59.003Z,99107.08
2018-12-17T19:02:03.246Z,99121.05
2018-12-17T19:10:53.155Z,99137.48
2018-12-17T19:14:57.322Z,99134.73
2018-12-17T19:19:02.117Z,99151.30
2018-12-17T19:23:06.257Z,99150.29
2018-12-17T19:31:49.147Z,99161.98
2018-12-17T19:35:54.054Z,99165.37
2018-12-17T19:39:58.240Z,99165.60
2018-12-17T19:44:03.414Z,99167.81
2018-12-17T19:48:09.195Z,99159.95
2018-12-17T19:52:18.672Z,99159.62
2018-12-17T19:56:22.855Z,99159.72
2018-12-17T20:00:48.509Z,99159.05
2018-12-17T20:04:52.670Z,99158.33
2018-12-17T20:08:58.714Z,99147.73
2018-12-17T20:13:02.813Z,99159.59
2018-12-17T20:21:21.702Z,99163.52
2018-12-17T20:25:25.858Z,99171.88
2018-12-17T20:29:29.941Z,99173.27
2018-12-17T20:33:34.132Z,99178.44
2018-12-17T20:37:38.302Z,99176.82
2018-12-17T20:41:42.404Z,99184.94
2018-12-17T20:45:46.494Z,99180.61
2018-12-17T20:49:50.569Z,99189.65
2018-12-17T20:53:54.679Z,99194.67
2018-12-17T20:57:58.945Z,99207.47
2018-12-17T21:02:03.348Z,99214.77
2018-12-17T21:06:07.434Z,99218.64
2018-12-17T21:10:11.785Z,99215.86
2018-12-17T21:14:15.830Z,99218.56
2018-12-17T21:18:19.914Z,99217.48
2018-12-17T21:22:24.002Z,99218.02
2018-12-17T21:26:28.154Z,99229.77
2018-12-17T21:30:32.247Z,99220.15
2018-12-17T21:34:37.422Z,99219.02
2018-12-17T21:38:41.591Z,99219.48
2018-12-17T21:42:45.678Z,99222.89
2018-12-17T21:46:50.376Z,99226.09
2018-12-17T21:50:54.463Z,99232.42
2018-12-17T21:54:58.542Z,99233.78
2018-12-17T21:59:02.786Z,99236.72
2018-12-17T22:03:13.085Z,99240.69
2018-12-17T22:07:13.028Z,99244.63
2018-12-17T22:11:17.129Z,99249.27
2018-12-17T22:15:21.291Z,99249.64
2018-12-17T22:19:25.404Z,99254.22
2018-12-17T22:23:29.464Z,99257.34
2018-12-17T22:27:33.554Z,99253.69
2018-12-17T22:31:37.718Z,99252.97
2018-12-17T22:35:41.803Z,99247.41
2018-12-17T22:39:45.879Z,99250.03
2018-12-17T22:43:49.961Z,99243.81
2018-12-17T22:47:54.048Z,99248.38
2018-12-17T22:51:58.160Z,99247.02
2018-12-17T22:56:02.284Z,99256.17
2018-12-17T23:00:08.897Z,99246.17
2018-12-17T23:04:15.934Z,99245.67
2018-12-17T23:08:20.005Z,99242.00
2018-12-17T23:12:42.174Z,99245.63
2018-12-17T23:17:04.192Z,99244.93
2018-12-17T23:21:08.499Z,99245.05
2018-12-17T23:25:14.633Z,99233.42
2018-12-17T23:29:18.738Z,99240.20
2018-12-17T23:33:22.815Z,99240.50
2018-12-17T23:37:26.957Z,99229.69
2018-12-17T23:41:31.037Z,99238.84
2018-12-17T23:45:35.260Z,99232.52
2018-12-17T23:49:39.473Z,99231.68
2018-12-17T23:53:43.560Z,99233.63
2018-12-17T23:57:47.629Z,99224.78
